Time;durP1;ratioP1;P1;durP2;ratioP2;P2;SDS_P1;SDS_P2;PMS_P1;PMS_P2;Temp;Humidity;BMP_temperature;BMP_pressure;BME280_temperature;BME280_humidity;BME280_pressure;Samples;Min_cycle;Max_cycle;Signal;HPM_P1;HPM_P2
2021/05/16 00:01:13;;;;;;;;;;;8.90;99.90;;;;;;4997805;28;19976;-75
2021/05/16 00:03:41;;;;;;;;;;;9.10;99.90;;;;;;4997708;28;19948;-74
2021/05/16 00:06:10;;;;;;;;;;;9.20;99.90;;;;;;4981881;28;19984;-74
2021/05/16 00:08:38;;;;;;;;;;;9.30;99.90;;;;;;4999023;28;19922;-74
2021/05/16 00:11:06;;;;;;;;;;;9.30;99.90;;;;;;4998660;28;19921;-74
2021/05/16 00:13:34;;;;;;;;;;;9.50;99.90;;;;;;4998335;28;19922;-74
2021/05/16 00:16:02;;;;;;;;;;;9.50;99.90;;;;;;4996538;28;20587;-74
2021/05/16 00:18:30;;;;;;;;;;;9.50;99.90;;;;;;4998802;28;19923;-74
2021/05/16 00:20:57;;;;;;;;;;;9.50;99.90;;;;;;4998966;28;19922;-75
2021/05/16 00:23:26;;;;;;;;;;;9.50;99.90;;;;;;4998551;28;19922;-74
2021/05/16 00:25:54;;;;;;;;;;;9.50;99.90;;;;;;4998775;28;19969;-74
2021/05/16 00:28:21;;;;;;;;;;;9.40;99.90;;;;;;4999071;28;19921;-77
2021/05/16 00:30:52;;;;;;;;;;;9.40;99.90;;;;;;4997231;28;20025;-73
2021/05/16 00:33:19;;;;;;;;;;;9.40;99.90;;;;;;4998144;28;20374;-75
2021/05/16 00:35:47;;;;;;;;;;;9.40;99.90;;;;;;5013538;28;19956;-74
2021/05/16 00:38:15;;;;;;;;;;;9.40;99.90;;;;;;4998669;28;19970;-74
2021/05/16 00:40:44;;;;;;;;;;;9.30;99.90;;;;;;5004519;28;20276;-74
2021/05/16 00:43:12;;;;;;;;;;;9.40;99.90;;;;;;5017983;28;19928;-74
2021/05/16 00:45:43;;;;;;;;;;;9.50;99.90;;;;;;4999553;28;19921;-74
2021/05/16 00:48:11;;;;;;;;;;;9.40;99.90;;;;;;5000488;28;19983;-75
2021/05/16 00:50:40;;;;;;;;;;;9.50;99.90;;;;;;5000563;28;19932;-77
2021/05/16 00:53:09;;;;;;;;;;;9.40;99.90;;;;;;5018016;28;20341;-73
2021/05/16 00:55:37;;;;;;;;;;;9.40;99.90;;;;;;4984899;28;19922;-75
2021/05/16 00:58:07;;;;;;;;;;;9.50;99.90;;;;;;5018346;28;19921;-73
2021/05/16 01:00:40;;;;;;;;;;;9.50;99.90;;;;;;5000595;28;19921;-79
2021/05/16 01:03:20;;;;;;;;;;;9.60;99.90;;;;;;5017626;28;19952;-74
2021/05/16 01:05:48;;;;;;;;;;;9.50;99.90;;;;;;5002448;28;19927;-75
2021/05/16 01:08:16;;;;;;;;;;;9.30;99.90;;;;;;5002284;28;19972;-73
2021/05/16 01:10:45;;;;;;;;;;;9.10;99.90;;;;;;5021058;28;20008;-74
2021/05/16 01:13:15;;;;;;;;;;;9.10;99.90;;;;;;5020750;28;19921;-73
2021/05/16 01:15:44;;;;;;;;;;;9.10;99.90;;;;;;5019509;28;19945;-75
2021/05/16 01:18:12;;;;;;;;;;;9.10;99.90;;;;;;5024922;28;19925;-74
2021/05/16 01:20:42;;;;;;;;;;;9.10;99.90;;;;;;5027713;28;19929;-78
2021/05/16 01:23:15;;;;;;;;;;;9.30;99.90;;;;;;4992383;28;19921;-75
2021/05/16 01:25:50;;;;;;;;;;;9.30;99.90;;;;;;4993316;28;19921;-78
2021/05/16 01:28:19;;;;;;;;;;;9.20;99.90;;;;;;5026308;28;20273;-77
2021/05/16 01:30:48;;;;;;;;;;;9.10;99.90;;;;;;5008675;28;19928;-72
2021/05/16 01:33:17;;;;;;;;;;;9.20;99.90;;;;;;5046424;22;19967;-66
2021/05/16 01:35:46;;;;;;;;;;;9.10;99.90;;;;;;5068549;28;19955;-66
2021/05/16 01:38:16;;;;;;;;;;;9.00;99.90;;;;;;5050268;28;19924;-68
2021/05/16 01:40:43;;;;;;;;;;;8.90;99.90;;;;;;5067254;28;20433;-66
2021/05/16 01:43:33;;;;;;;;;;;8.90;99.90;;;;;;5028181;28;19927;-66
2021/05/16 01:46:01;;;;;;;;;;;8.80;99.90;;;;;;5038376;28;20344;-65
2021/05/16 01:48:28;;;;;;;;;;;8.70;99.90;;;;;;5057237;28;20041;-67
2021/05/16 01:50:56;;;;;;;;;;;8.70;99.90;;;;;;5056560;28;19928;-68
2021/05/16 01:53:31;;;;;;;;;;;8.60;99.90;;;;;;5056451;28;19925;-66
2021/05/16 01:55:59;;;;;;;;;;;8.60;99.90;;;;;;5054728;28;19943;-66
2021/05/16 01:58:27;;;;;;;;;;;8.50;99.90;;;;;;5056070;28;19920;-64
2021/05/16 02:00:59;;;;;;;;;;;8.50;99.90;;;;;;5061023;28;19967;-66
2021/05/16 02:03:33;;;;;;;;;;;8.60;99.90;;;;;;5046012;28;19921;-66
2021/05/16 02:06:02;;;;;;;;;;;8.70;99.90;;;;;;5056818;28;19921;-65
2021/05/16 02:08:31;;;;;;;;;;;8.60;99.90;;;;;;5038233;28;19927;-65
2021/05/16 02:11:00;;;;;;;;;;;8.60;99.90;;;;;;5056318;28;20387;-66
2021/05/16 02:13:30;;;;;;;;;;;8.60;99.90;;;;;;5038154;28;19951;-68
2021/05/16 02:16:11;;;;;;;;;;;8.50;99.90;;;;;;5036683;28;19927;-66
2021/05/16 02:18:41;;;;;;;;;;;8.30;99.90;;;;;;5038044;28;19921;-68
2021/05/16 02:21:13;;;;;;;;;;;8.20;99.90;;;;;;5054373;28;20335;-65
2021/05/16 02:23:46;;;;;;;;;;;8.00;99.90;;;;;;5037749;28;19928;-66
2021/05/16 02:26:20;;;;;;;;;;;7.90;99.90;;;;;;5054426;28;20292;-65
2021/05/16 02:28:48;;;;;;;;;;;7.80;99.90;;;;;;5054533;28;19920;-66
2021/05/16 02:31:18;;;;;;;;;;;7.70;99.90;;;;;;5019880;28;19921;-65
2021/05/16 02:33:48;;;;;;;;;;;7.60;99.90;;;;;;5050292;28;20011;-66
2021/05/16 02:36:16;;;;;;;;;;;7.60;99.90;;;;;;5035724;28;19921;-64
2021/05/16 02:38:45;;;;;;;;;;;7.60;99.90;;;;;;5037496;28;20023;-66
2021/05/16 02:41:13;;;;;;;;;;;7.50;99.90;;;;;;5042401;28;19921;-66
2021/05/16 02:43:41;;;;;;;;;;;7.50;99.90;;;;;;5040560;28;20042;-65
2021/05/16 02:46:10;;;;;;;;;;;7.50;99.90;;;;;;5038700;28;20015;-65
2021/05/16 02:51:31;;;;;;;;;;;7.50;99.90;;;;;;5036123;28;19921;-65
2021/05/16 02:54:00;;;;;;;;;;;7.40;99.90;;;;;;5034934;28;19928;-65
2021/05/16 02:56:29;;;;;;;;;;;7.40;99.90;;;;;;5033531;28;19936;-65
2021/05/16 02:58:57;;;;;;;;;;;7.30;99.90;;;;;;5016683;28;20011;-65
2021/05/16 03:01:26;;;;;;;;;;;7.30;99.90;;;;;;5032685;28;19947;-67
2021/05/16 03:04:00;;;;;;;;;;;7.20;99.90;;;;;;5033645;28;20377;-66
2021/05/16 03:06:28;;;;;;;;;;;7.20;99.90;;;;;;5032941;28;20368;-66
2021/05/16 03:08:56;;;;;;;;;;;7.20;99.90;;;;;;5034312;28;19967;-65
2021/05/16 03:11:30;;;;;;;;;;;7.10;99.90;;;;;;5033374;28;19921;-66
2021/05/16 03:13:59;;;;;;;;;;;7.20;99.90;;;;;;5034487;28;20303;-66
2021/05/16 03:16:31;;;;;;;;;;;7.10;99.90;;;;;;5015961;28;19925;-65
2021/05/16 03:18:59;;;;;;;;;;;7.20;99.90;;;;;;5033385;28;20004;-68
2021/05/16 03:21:33;;;;;;;;;;;7.20;99.90;;;;;;5032887;28;20027;-65
2021/05/16 03:24:01;;;;;;;;;;;7.20;99.90;;;;;;5032536;28;19972;-65
2021/05/16 03:26:30;;;;;;;;;;;7.20;99.90;;;;;;5032629;28;19921;-65
2021/05/16 03:28:58;;;;;;;;;;;7.20;99.90;;;;;;5034626;28;20434;-65
2021/05/16 03:31:25;;;;;;;;;;;7.20;99.90;;;;;;5033617;28;19928;-64
2021/05/16 03:33:53;;;;;;;;;;;7.30;99.90;;;;;;5042178;28;19920;-65
2021/05/16 03:36:21;;;;;;;;;;;7.20;99.90;;;;;;5053616;28;20292;-65
2021/05/16 03:38:49;;;;;;;;;;;7.20;99.90;;;;;;5053528;28;20377;-67
2021/05/16 03:41:17;;;;;;;;;;;7.20;99.90;;;;;;5053487;28;19931;-65
2021/05/16 03:43:49;;;;;;;;;;;7.30;99.90;;;;;;5036266;28;19956;-66
2021/05/16 03:46:16;;;;;;;;;;;7.50;99.90;;;;;;5052562;28;19924;-65
2021/05/16 03:48:44;;;;;;;;;;;7.60;99.90;;;;;;5053783;28;19924;-65
2021/05/16 03:51:12;;;;;;;;;;;7.80;99.90;;;;;;5053294;28;19951;-65
2021/05/16 03:54:04;;;;;;;;;;;7.90;99.90;;;;;;5053459;28;19931;-67
2021/05/16 03:56:32;;;;;;;;;;;8.00;99.90;;;;;;5053907;28;19955;-68
2021/05/16 03:59:01;;;;;;;;;;;8.20;99.90;;;;;;5054301;28;20306;-68
2021/05/16 04:01:29;;;;;;;;;;;8.30;99.90;;;;;;5053090;28;20430;-66
2021/05/16 04:03:57;;;;;;;;;;;8.50;99.90;;;;;;5036117;28;19991;-67
2021/05/16 04:06:25;;;;;;;;;;;8.40;99.90;;;;;;5054486;28;19925;-66
2021/05/16 04:08:53;;;;;;;;;;;8.30;99.90;;;;;;5053894;28;19920;-66
2021/05/16 04:11:21;;;;;;;;;;;8.40;99.90;;;;;;5036265;28;19927;-65
2021/05/16 04:13:48;;;;;;;;;;;8.30;99.90;;;;;;5053357;28;19920;-66
2021/05/16 04:16:17;;;;;;;;;;;8.20;99.90;;;;;;5053017;28;19921;-66
2021/05/16 04:18:45;;;;;;;;;;;8.20;99.90;;;;;;5053725;28;20023;-68
2021/05/16 04:21:12;;;;;;;;;;;8.30;99.90;;;;;;5053768;28;19925;-68
2021/05/16 04:23:41;;;;;;;;;;;8.30;99.90;;;;;;5053117;28;19921;-66
2021/05/16 04:26:34;;;;;;;;;;;8.50;99.90;;;;;;5055303;28;19921;-65
2021/05/16 04:32:02;;;;;;;;;;;8.60;99.90;;;;;;4996794;28;19928;-81
2021/05/16 04:34:30;;;;;;;;;;;8.70;99.90;;;;;;4998586;28;19992;-80
2021/05/16 04:36:58;;;;;;;;;;;8.70;99.90;;;;;;4983576;28;19921;-80
2021/05/16 04:39:26;;;;;;;;;;;8.60;99.90;;;;;;5000513;28;19921;-76
2021/05/16 04:41:54;;;;;;;;;;;8.70;99.90;;;;;;5018764;28;19980;-80
2021/05/16 04:44:23;;;;;;;;;;;8.80;99.90;;;;;;5020426;28;20268;-79
2021/05/16 04:46:56;;;;;;;;;;;8.80;99.90;;;;;;5017202;28;20020;-79
2021/05/16 04:49:24;;;;;;;;;;;8.60;99.90;;;;;;5017762;28;19929;-80
2021/05/16 04:51:52;;;;;;;;;;;8.60;99.90;;;;;;5018709;28;19964;-79
2021/05/16 04:54:20;;;;;;;;;;;8.70;99.90;;;;;;5019787;28;19925;-79
2021/05/16 04:56:48;;;;;;;;;;;8.70;99.90;;;;;;5003628;28;19921;-80
2021/05/16 04:59:17;;;;;;;;;;;8.70;99.90;;;;;;5019038;28;19927;-80
2021/05/16 05:02:10;;;;;;;;;;;8.70;99.90;;;;;;5017359;28;19921;-79
2021/05/16 05:05:05;;;;;;;;;;;8.70;99.90;;;;;;5000726;28;19931;-80
2021/05/16 05:07:34;;;;;;;;;;;8.90;99.90;;;;;;5020127;28;19928;-79
2021/05/16 05:10:02;;;;;;;;;;;8.90;99.90;;;;;;5002855;28;20002;-79
2021/05/16 05:12:30;;;;;;;;;;;9.00;99.90;;;;;;5017823;28;19925;-77
2021/05/16 05:14:57;;;;;;;;;;;8.90;99.90;;;;;;5016034;28;20407;-79
2021/05/16 05:17:25;;;;;;;;;;;8.90;99.90;;;;;;5016988;28;19921;-78
2021/05/16 05:19:53;;;;;;;;;;;8.90;99.90;;;;;;4999978;28;19922;-79
2021/05/16 05:22:21;;;;;;;;;;;9.00;99.90;;;;;;5015590;28;20376;-78
2021/05/16 05:24:50;;;;;;;;;;;8.90;99.90;;;;;;4999696;28;20415;-79
2021/05/16 05:27:43;;;;;;;;;;;8.90;99.90;;;;;;5017238;28;19942;-80
2021/05/16 05:30:12;;;;;;;;;;;8.90;99.90;;;;;;5019575;22;19936;-75
2021/05/16 05:32:40;;;;;;;;;;;9.20;99.90;;;;;;5076171;28;20291;-75
2021/05/16 05:35:08;;;;;;;;;;;9.30;99.90;;;;;;5076766;28;19920;-74
2021/05/16 05:37:36;;;;;;;;;;;9.30;99.90;;;;;;5059197;28;19935;-74
2021/05/16 05:40:06;;;;;;;;;;;9.10;99.90;;;;;;5079113;28;19921;-77
2021/05/16 05:42:33;;;;;;;;;;;9.20;99.90;;;;;;5066612;28;19920;-75
2021/05/16 05:45:01;;;;;;;;;;;9.40;99.90;;;;;;5065946;28;19920;-74
2021/05/16 05:47:29;;;;;;;;;;;9.30;99.90;;;;;;5062821;28;19924;-73
2021/05/16 05:49:56;;;;;;;;;;;9.50;99.90;;;;;;5046700;28;19931;-74
2021/05/16 05:52:24;;;;;;;;;;;9.40;99.90;;;;;;5046740;28;19920;-74
2021/05/16 05:54:52;;;;;;;;;;;9.40;99.90;;;;;;5047863;28;19920;-75
2021/05/16 05:57:20;;;;;;;;;;;9.50;99.90;;;;;;5030224;28;20023;-74
2021/05/16 05:59:49;;;;;;;;;;;9.70;99.90;;;;;;5048100;28;20050;-75
2021/05/16 06:02:17;;;;;;;;;;;9.60;99.90;;;;;;5078563;28;20427;-77
2021/05/16 06:04:45;;;;;;;;;;;9.90;99.90;;;;;;5063111;28;19930;-78
2021/05/16 06:07:37;;;;;;;;;;;10.20;99.90;;;;;;5067179;28;19947;-79
2021/05/16 06:10:06;;;;;;;;;;;10.00;99.90;;;;;;5067276;28;19962;-74
2021/05/16 06:12:35;;;;;;;;;;;9.90;99.90;;;;;;5067530;28;20363;-79
2021/05/16 06:15:03;;;;;;;;;;;9.80;99.90;;;;;;5083419;28;19920;-76
2021/05/16 06:17:31;;;;;;;;;;;10.00;99.90;;;;;;5062321;28;19920;-74
2021/05/16 06:19:59;;;;;;;;;;;10.10;99.90;;;;;;5067098;28;20002;-75
2021/05/16 06:22:26;;;;;;;;;;;10.40;99.90;;;;;;5086796;28;20395;-75
2021/05/16 06:27:47;;;;;;;;;;;10.40;99.90;;;;;;5067913;28;19921;-74
2021/05/16 06:30:16;;;;;;;;;;;10.50;99.90;;;;;;5058725;28;19978;-76
2021/05/16 06:32:44;;;;;;;;;;;10.80;99.90;;;;;;5083223;28;19994;-77
2021/05/16 06:35:12;;;;;;;;;;;10.80;99.90;;;;;;5066641;28;19988;-74
2021/05/16 06:37:41;;;;;;;;;;;10.70;99.90;;;;;;5066341;28;19920;-76
2021/05/16 06:40:11;;;;;;;;;;;10.80;99.90;;;;;;5085098;28;19955;-74
2021/05/16 06:42:38;;;;;;;;;;;10.40;99.90;;;;;;5086276;28;19962;-74
2021/05/16 06:45:08;;;;;;;;;;;10.60;99.90;;;;;;5069468;28;19964;-75
2021/05/16 06:47:36;;;;;;;;;;;10.70;99.90;;;;;;5054831;28;19964;-75
2021/05/16 06:50:05;;;;;;;;;;;10.50;99.90;;;;;;5059265;28;19959;-74
2021/05/16 06:52:32;;;;;;;;;;;10.50;99.90;;;;;;5076797;28;19920;-73
2021/05/16 06:55:00;;;;;;;;;;;10.50;99.90;;;;;;5040789;28;19928;-74
2021/05/16 06:57:28;;;;;;;;;;;10.60;99.90;;;;;;5074697;28;19920;-74
2021/05/16 07:00:00;;;;;;;;;;;11.00;99.90;;;;;;5056606;28;20349;-74
2021/05/16 07:02:29;;;;;;;;;;;11.30;99.90;;;;;;5056002;28;19974;-74
2021/05/16 07:07:50;;;;;;;;;;;11.60;99.90;;;;;;5058017;28;19920;-75
2021/05/16 07:10:18;;;;;;;;;;;11.70;99.90;;;;;;5042465;28;19971;-77
2021/05/16 07:12:46;;;;;;;;;;;11.60;99.90;;;;;;5077001;28;20283;-73
2021/05/16 07:15:14;;;;;;;;;;;11.70;99.90;;;;;;5057610;28;19947;-73
2021/05/16 07:17:43;;;;;;;;;;;11.50;99.90;;;;;;5076939;28;19927;-74
2021/05/16 07:20:11;;;;;;;;;;;11.50;99.90;;;;;;5076606;28;19920;-75
2021/05/16 07:22:39;;;;;;;;;;;11.80;99.90;;;;;;5058961;28;19921;-74
2021/05/16 07:25:07;;;;;;;;;;;12.10;99.90;;;;;;5078394;28;19956;-73
2021/05/16 07:27:35;;;;;;;;;;;12.50;99.90;;;;;;5059360;28;20275;-77
2021/05/16 07:30:04;;;;;;;;;;;12.90;99.90;;;;;;5076680;28;19920;-75
2021/05/16 07:32:33;;;;;;;;;;;12.50;99.90;;;;;;5059123;28;20330;-76
2021/05/16 07:35:01;;;;;;;;;;;12.60;99.90;;;;;;5060519;28;19921;-75
2021/05/16 07:37:29;;;;;;;;;;;12.90;99.90;;;;;;5078633;28;20010;-77
2021/05/16 07:39:58;;;;;;;;;;;12.90;99.90;;;;;;5059949;28;19936;-76
2021/05/16 07:42:32;;;;;;;;;;;13.10;99.90;;;;;;5061714;28;19986;-76
2021/05/16 07:45:10;;;;;;;;;;;13.30;99.90;;;;;;5043616;28;19978;-75
2021/05/16 07:47:39;;;;;;;;;;;13.40;99.90;;;;;;5060856;28;19921;-77
2021/05/16 07:50:08;;;;;;;;;;;13.50;99.90;;;;;;5062033;28;19927;-77
2021/05/16 07:52:36;;;;;;;;;;;13.40;99.90;;;;;;5061870;28;20386;-76
2021/05/16 07:55:04;;;;;;;;;;;13.60;99.90;;;;;;5061285;28;20279;-75
2021/05/16 07:57:32;;;;;;;;;;;14.20;99.90;;;;;;5060957;28;19927;-75
2021/05/16 08:00:06;;;;;;;;;;;14.00;99.90;;;;;;5059844;28;19927;-76
2021/05/16 08:02:40;;;;;;;;;;;14.10;99.90;;;;;;5059972;28;19928;-77
2021/05/16 08:05:10;;;;;;;;;;;14.40;99.90;;;;;;5079910;28;19932;-76
2021/05/16 08:07:38;;;;;;;;;;;16.00;99.90;;;;;;5061853;28;20434;-76
2021/05/16 08:10:06;;;;;;;;;;;16.70;99.90;;;;;;5045225;28;19924;-76
2021/05/16 08:12:34;;;;;;;;;;;17.40;99.90;;;;;;5078871;28;19921;-74
2021/05/16 08:15:03;;;;;;;;;;;18.20;97.40;;;;;;5082931;28;19922;-75
2021/05/16 08:17:30;;;;;;;;;;;16.70;98.90;;;;;;5082701;28;19920;-76
2021/05/16 08:19:58;;;;;;;;;;;14.50;99.90;;;;;;5083812;28;19956;-74
2021/05/16 08:22:26;;;;;;;;;;;14.40;99.90;;;;;;5065072;28;19927;-77
2021/05/16 08:25:19;;;;;;;;;;;14.20;99.90;;;;;;5064431;28;19920;-76
2021/05/16 08:27:47;;;;;;;;;;;15.40;99.90;;;;;;5065879;28;20279;-75
2021/05/16 08:30:16;;;;;;;;;;;17.30;99.80;;;;;;5080729;28;19920;-75
2021/05/16 08:32:44;;;;;;;;;;;18.80;95.70;;;;;;5047548;28;19920;-76
2021/05/16 08:35:12;;;;;;;;;;;17.80;96.00;;;;;;5064941;28;19926;-76
2021/05/16 08:37:41;;;;;;;;;;;17.00;97.70;;;;;;5048433;28;19920;-75
2021/05/16 08:40:10;;;;;;;;;;;16.70;98.10;;;;;;5082048;28;20391;-76
2021/05/16 08:42:39;;;;;;;;;;;15.90;99.30;;;;;;5064529;28;20136;-75
2021/05/16 08:45:10;;;;;;;;;;;15.50;99.90;;;;;;5047695;28;19975;-75
2021/05/16 08:47:38;;;;;;;;;;;14.90;99.90;;;;;;5082655;28;19920;-75
2021/05/16 08:50:08;;;;;;;;;;;14.50;99.90;;;;;;5064506;28;19967;-75
2021/05/16 08:52:36;;;;;;;;;;;14.50;99.90;;;;;;5047677;28;20412;-75
2021/05/16 08:55:06;;;;;;;;;;;14.40;99.90;;;;;;5084913;28;19921;-75
2021/05/16 08:57:38;;;;;;;;;;;15.10;99.90;;;;;;5082912;28;19927;-73
2021/05/16 09:00:11;;;;;;;;;;;16.20;99.90;;;;;;5083125;28;20020;-74
2021/05/16 09:03:03;;;;;;;;;;;17.40;98.00;;;;;;5049798;28;19924;-74
2021/05/16 09:05:35;;;;;;;;;;;19.70;92.60;;;;;;5068410;28;19960;-75
2021/05/16 09:08:04;;;;;;;;;;;18.30;93.00;;;;;;5049443;28;19920;-76
2021/05/16 09:10:33;;;;;;;;;;;16.50;96.10;;;;;;5067378;28;19962;-77
2021/05/16 09:13:08;;;;;;;;;;;15.50;99.10;;;;;;5066899;28;19939;-77
2021/05/16 09:15:36;;;;;;;;;;;15.00;99.90;;;;;;5083057;28;19924;-75
2021/05/16 09:18:04;;;;;;;;;;;14.70;99.90;;;;;;5064607;28;19969;-75
2021/05/16 09:20:32;;;;;;;;;;;14.50;99.90;;;;;;5064176;28;20087;-77
2021/05/16 09:23:01;;;;;;;;;;;14.40;99.90;;;;;;5061979;28;19920;-75
2021/05/16 09:25:31;;;;;;;;;;;14.40;99.90;;;;;;5062421;28;19920;-75
2021/05/16 09:28:12;;;;;;;;;;;14.70;99.90;;;;;;5064924;28;20300;-78
2021/05/16 09:30:41;;;;;;;;;;;16.10;98.20;;;;;;5046399;28;20359;-75
2021/05/16 09:33:12;;;;;;;;;;;16.30;97.40;;;;;;5085880;28;19924;-77
2021/05/16 09:35:44;;;;;;;;;;;16.10;97.50;;;;;;5083964;28;19927;-77
2021/05/16 09:38:17;;;;;;;;;;;15.50;98.10;;;;;;5080005;28;19924;-76
2021/05/16 09:40:45;;;;;;;;;;;14.80;98.90;;;;;;5061911;28;19921;-76
2021/05/16 09:43:16;;;;;;;;;;;14.20;99.90;;;;;;5062078;28;19920;-74
2021/05/16 09:45:48;;;;;;;;;;;13.50;99.90;;;;;;5059789;28;19927;-75
2021/05/16 09:48:30;;;;;;;;;;;12.70;99.90;;;;;;5041839;28;20419;-75
2021/05/16 09:51:05;;;;;;;;;;;12.30;99.90;;;;;;5058582;28;19943;-75
2021/05/16 09:53:33;;;;;;;;;;;12.00;99.90;;;;;;5077314;28;19920;-75
2021/05/16 09:56:20;;;;;;;;;;;12.20;99.90;;;;;;5078489;28;20323;-75
2021/05/16 09:58:49;;;;;;;;;;;12.80;99.90;;;;;;5077700;28;19920;-74
2021/05/16 10:01:17;;;;;;;;;;;13.80;99.90;;;;;;5062555;28;19920;-78
2021/05/16 10:03:47;;;;;;;;;;;14.50;99.90;;;;;;5082724;28;20050;-75
2021/05/16 10:06:15;;;;;;;;;;;16.90;99.90;;;;;;5063334;28;19963;-74
2021/05/16 10:08:45;;;;;;;;;;;19.10;97.00;;;;;;5062721;28;19920;-74
2021/05/16 10:11:15;;;;;;;;;;;17.80;99.30;;;;;;5062420;28;20012;-75
2021/05/16 10:13:46;;;;;;;;;;;18.10;99.30;;;;;;5061843;28;19921;-74
2021/05/16 10:16:16;;;;;;;;;;;18.40;98.20;;;;;;5060547;28;19920;-74
2021/05/16 10:18:46;;;;;;;;;;;18.10;98.70;;;;;;5046288;28;20003;-75
2021/05/16 10:21:14;;;;;;;;;;;17.60;99.40;;;;;;5062051;28;19920;-77
2021/05/16 10:23:43;;;;;;;;;;;18.10;99.00;;;;;;5081324;28;19924;-75
2021/05/16 10:26:36;;;;;;;;;;;19.70;96.30;;;;;;5063361;28;19920;-75
2021/05/16 10:29:05;;;;;;;;;;;22.20;90.00;;;;;;5065831;28;19920;-75
2021/05/16 10:31:47;;;;;;;;;;;24.00;83.20;;;;;;5080009;28;19920;-76
2021/05/16 10:34:39;;;;;;;;;;;23.50;79.10;;;;;;5062079;28;19921;-74
2021/05/16 10:40:01;;;;;;;;;;;22.10;83.90;;;;;;5063867;28;19928;-77
2021/05/16 10:42:34;;;;;;;;;;;20.80;79.70;;;;;;5046712;28;19924;-75
2021/05/16 10:45:06;;;;;;;;;;;20.50;81.80;;;;;;5081120;28;19927;-74
2021/05/16 10:47:56;;;;;;;;;;;20.20;82.90;;;;;;5063434;28;19962;-75
2021/05/16 10:50:48;;;;;;;;;;;19.70;84.20;;;;;;5075055;28;19994;-78
2021/05/16 10:53:23;;;;;;;;;;;19.20;81.00;;;;;;5062481;28;19968;-75
2021/05/16 10:55:51;;;;;;;;;;;18.80;81.20;;;;;;5080871;28;19924;-74
2021/05/16 10:58:38;;;;;;;;;;;18.60;85.40;;;;;;5062690;28;19920;-74
2021/05/16 11:01:07;;;;;;;;;;;18.50;85.30;;;;;;5078831;28;19928;-75
2021/05/16 11:03:42;;;;;;;;;;;18.30;86.30;;;;;;5063410;28;19927;-75
2021/05/16 11:06:10;;;;;;;;;;;17.70;88.90;;;;;;5063867;28;20475;-75
2021/05/16 11:09:14;;;;;;;;;;;16.50;91.30;;;;;;5081324;28;19920;-74
2021/05/16 11:11:58;;;;;;;;;;;15.10;99.90;;;;;;5077924;28;19924;-75
2021/05/16 11:14:28;;;;;;;;;;;13.90;99.90;;;;;;5059138;28;20364;-74
2021/05/16 11:16:57;;;;;;;;;;;13.30;99.90;;;;;;5040878;28;19931;-75
2021/05/16 11:19:26;;;;;;;;;;;13.20;99.90;;;;;;5075996;28;19924;-76
2021/05/16 11:21:54;;;;;;;;;;;13.20;99.90;;;;;;5041894;28;20359;-74
2021/05/16 11:24:36;;;;;;;;;;;13.40;99.90;;;;;;5041295;28;19999;-76
2021/05/16 11:27:15;;;;;;;;;;;13.60;99.90;;;;;;5076636;28;19974;-75
2021/05/16 11:29:43;;;;;;;;;;;13.90;99.90;;;;;;5078493;28;19951;-75
2021/05/16 11:32:10;;;;;;;;;;;14.30;99.90;;;;;;5077997;28;19978;-74
2021/05/16 11:34:39;;;;;;;;;;;14.60;99.90;;;;;;5062329;28;19955;-76
2021/05/16 11:37:31;;;;;;;;;;;14.60;99.90;;;;;;5044719;28;19920;-74
2021/05/16 11:40:32;;;;;;;;;;;14.80;99.90;;;;;;5078426;28;19920;-76
2021/05/16 11:43:27;;;;;;;;;;;15.20;99.90;;;;;;5079756;28;19921;-74
2021/05/16 11:45:55;;;;;;;;;;;15.20;99.90;;;;;;5059878;28;20356;-77
2021/05/16 11:48:30;;;;;;;;;;;15.80;99.90;;;;;;5061289;28;19936;-75
2021/05/16 11:51:03;;;;;;;;;;;16.10;99.90;;;;;;5064611;28;19943;-74
2021/05/16 11:53:30;;;;;;;;;;;16.20;99.90;;;;;;5082788;28;19991;-76
2021/05/16 11:56:01;;;;;;;;;;;16.30;99.90;;;;;;5085506;28;19943;-77
2021/05/16 11:58:30;;;;;;;;;;;16.30;99.90;;;;;;5048961;28;19920;-74
2021/05/16 12:00:59;;;;;;;;;;;16.10;99.90;;;;;;5082004;28;20330;-74
2021/05/16 12:03:26;;;;;;;;;;;16.20;99.90;;;;;;5083251;28;19924;-75
2021/05/16 12:06:03;;;;;;;;;;;16.00;99.40;;;;;;5081791;28;19951;-71
2021/05/16 12:08:32;;;;;;;;;;;16.40;99.40;;;;;;5079933;28;19920;-67
2021/05/16 12:11:04;;;;;;;;;;;16.20;98.50;;;;;;5079078;28;20321;-66
2021/05/16 12:13:33;;;;;;;;;;;16.20;95.90;;;;;;5079411;28;20030;-66
2021/05/16 12:16:17;;;;;;;;;;;16.50;96.20;;;;;;5078940;28;19947;-67
2021/05/16 12:18:47;;;;;;;;;;;16.30;97.10;;;;;;5062272;28;19990;-66
2021/05/16 12:21:16;;;;;;;;;;;16.20;97.80;;;;;;5062413;28;19960;-69
2021/05/16 12:23:50;;;;;;;;;;;16.20;99.00;;;;;;5080561;28;19967;-70
2021/05/16 12:26:19;;;;;;;;;;;16.80;96.30;;;;;;5080353;28;19959;-69
2021/05/16 12:28:48;;;;;;;;;;;17.20;95.60;;;;;;5079859;28;19921;-68
2021/05/16 12:31:17;;;;;;;;;;;16.20;96.30;;;;;;5078791;28;19982;-68
2021/05/16 12:33:46;;;;;;;;;;;16.20;97.20;;;;;;5061813;28;19927;-67
2021/05/16 12:36:16;;;;;;;;;;;16.20;96.30;;;;;;5079840;28;20199;-68
2021/05/16 12:38:44;;;;;;;;;;;15.50;96.90;;;;;;5080045;28;19920;-73
2021/05/16 12:41:13;;;;;;;;;;;15.50;98.00;;;;;;5082483;28;19924;-64
2021/05/16 12:43:41;;;;;;;;;;;15.60;98.00;;;;;;5079357;28;20386;-70
2021/05/16 12:46:10;;;;;;;;;;;16.00;98.00;;;;;;5078578;28;19982;-69
2021/05/16 12:48:40;;;;;;;;;;;16.10;98.30;;;;;;5061994;28;19920;-69
2021/05/16 12:51:07;;;;;;;;;;;16.50;97.10;;;;;;5061150;28;19970;-68
2021/05/16 12:53:38;;;;;;;;;;;16.60;97.10;;;;;;5079457;28;19921;-72
2021/05/16 12:59:06;;;;;;;;;;;16.00;99.90;;;;;;5079115;28;20057;-69
2021/05/16 13:01:37;;;;;;;;;;;16.30;99.90;;;;;;5061468;28;19927;-74
2021/05/16 13:04:06;;;;;;;;;;;16.60;99.90;;;;;;5061877;28;19956;-69
2021/05/16 13:06:36;;;;;;;;;;;16.80;99.00;;;;;;5080269;28;19920;-72
2021/05/16 13:09:05;;;;;;;;;;;16.70;99.10;;;;;;5079776;28;19924;-70
2021/05/16 13:11:44;;;;;;;;;;;16.70;98.40;;;;;;5061562;28;19951;-68
2021/05/16 13:14:22;;;;;;;;;;;16.70;98.40;;;;;;5079640;28;19920;-70
2021/05/16 13:16:50;;;;;;;;;;;16.40;99.10;;;;;;5060944;28;19920;-69
2021/05/16 13:19:31;;;;;;;;;;;16.00;99.90;;;;;;5060993;28;20360;-69
2021/05/16 13:21:59;;;;;;;;;;;15.90;99.90;;;;;;5078898;28;19920;-69
2021/05/16 13:24:42;;;;;;;;;;;16.00;99.20;;;;;;5061421;28;20372;-68
2021/05/16 13:27:13;;;;;;;;;;;16.00;99.60;;;;;;5079307;28;19926;-68
2021/05/16 13:29:44;;;;;;;;;;;16.30;99.90;;;;;;5061485;28;19928;-68
2021/05/16 13:32:16;;;;;;;;;;;16.60;99.50;;;;;;5078323;28;20367;-69
2021/05/16 13:34:46;;;;;;;;;;;16.50;98.90;;;;;;5079337;28;20350;-69
2021/05/16 13:37:16;;;;;;;;;;;16.80;98.20;;;;;;5079309;28;19921;-68
2021/05/16 13:39:44;;;;;;;;;;;17.00;98.50;;;;;;5078838;28;19990;-69
2021/05/16 13:42:12;;;;;;;;;;;16.80;98.90;;;;;;5079737;28;19956;-69
2021/05/16 13:44:40;;;;;;;;;;;16.90;98.70;;;;;;5061952;28;20383;-68
2021/05/16 13:47:08;;;;;;;;;;;17.10;98.10;;;;;;5077770;28;19935;-68
2021/05/16 13:49:36;;;;;;;;;;;16.90;97.80;;;;;;5079573;28;19921;-71
2021/05/16 13:52:04;;;;;;;;;;;16.90;98.30;;;;;;5061617;28;19950;-68
2021/05/16 13:54:32;;;;;;;;;;;17.20;98.70;;;;;;5079273;28;19965;-68
2021/05/16 13:57:01;;;;;;;;;;;17.50;97.40;;;;;;5079342;28;19920;-68
2021/05/16 13:59:30;;;;;;;;;;;17.30;96.40;;;;;;5079604;28;19935;-68
2021/05/16 14:01:57;;;;;;;;;;;17.10;97.20;;;;;;5079025;28;19920;-68
2021/05/16 14:04:27;;;;;;;;;;;16.90;97.80;;;;;;5080096;28;19943;-69
2021/05/16 14:06:56;;;;;;;;;;;16.80;97.80;;;;;;5079756;28;19966;-70
2021/05/16 14:09:26;;;;;;;;;;;16.70;97.90;;;;;;5063686;28;20016;-70
2021/05/16 14:11:54;;;;;;;;;;;16.30;98.30;;;;;;5060283;28;19943;-69
2021/05/16 14:14:46;;;;;;;;;;;16.60;98.20;;;;;;5080084;28;19921;-68
2021/05/16 14:17:14;;;;;;;;;;;17.20;97.00;;;;;;5059431;28;19920;-68
2021/05/16 14:19:42;;;;;;;;;;;17.40;95.90;;;;;;5079224;28;20016;-69
2021/05/16 14:22:11;;;;;;;;;;;17.10;96.40;;;;;;5079197;28;19927;-69
2021/05/16 14:24:44;;;;;;;;;;;18.00;96.40;;;;;;5079788;28;19925;-68
2021/05/16 14:27:12;;;;;;;;;;;18.60;95.10;;;;;;5060534;28;20351;-69
2021/05/16 14:29:40;;;;;;;;;;;19.00;93.30;;;;;;5060996;28;20019;-71
2021/05/16 14:32:07;;;;;;;;;;;19.30;93.40;;;;;;5059409;28;19939;-70
2021/05/16 14:34:35;;;;;;;;;;;19.00;92.90;;;;;;5078571;28;19920;-69
2021/05/16 14:37:03;;;;;;;;;;;18.10;93.30;;;;;;5078034;28;19987;-68
2021/05/16 14:39:59;;;;;;;;;;;17.90;93.90;;;;;;5077926;28;19920;-71
2021/05/16 14:42:27;;;;;;;;;;;17.70;94.20;;;;;;5078211;28;19963;-68
2021/05/16 14:44:55;;;;;;;;;;;17.50;94.20;;;;;;5078359;28;19926;-69
2021/05/16 14:47:23;;;;;;;;;;;17.70;93.90;;;;;;5059014;28;19926;-70
2021/05/16 14:49:50;;;;;;;;;;;17.40;94.10;;;;;;5060142;28;19967;-68
2021/05/16 14:52:18;;;;;;;;;;;17.10;94.70;;;;;;5060599;28;19986;-71
2021/05/16 14:54:46;;;;;;;;;;;16.90;94.60;;;;;;5077905;28;20154;-68
2021/05/16 14:57:14;;;;;;;;;;;17.00;94.40;;;;;;5077840;28;19965;-69
2021/05/16 14:59:42;;;;;;;;;;;17.10;94.20;;;;;;5060016;28;20059;-68
2021/05/16 15:02:10;;;;;;;;;;;16.90;94.40;;;;;;5076965;28;19935;-72